NPH weather

Nephi Municipal Airport
Nephi, Utah, United States

Public forecast

Using degrees Fahrenheit for public forecast. Weather courtesy of forecast.io.

Closest aviation weather report (METAR) to Nephi Municipal Airport

Closest report is Provo Municipal Airport, 29.6 nm (54.9 km) NNE. Retrieved 2020/04/04 15:56 UTC (2 hours ago):

KPVU 041556Z VRB05KT 10SM FEW100 SCT220 06/M06 A2989 RMK AO2 SLP117 T00611061

Closest aviation forecast (TAF) to Nephi Municipal Airport

Closest forecast is Provo Municipal Airport, 29.6 nm (54.9 km) NNE. Retrieved 2020/04/04 12:22 UTC (5 hours ago):

TAF KPVU 041120Z 0412/0512 VRB06KT P6SM SKC FM042000 25006KT P6SM FEW090 SCT200 FM050100 16010KT P6SM SCT100 BKN120